Disclaimer

Please do not use the information listed here in-flight or in-navigation, as they are not provided to us by the airports but are provided by volunteers, so they might be outdated.

Search


Regions


Airport information page

Radio informations:
Melbourne Center - 121.2 MHz
Common traffic adv. frequency (CTAF) - 126.7 MHz

Airport informations:
Latitude: 28° 47' 46.00" S
Longitude: 114° 42' 27.00" E
Elevation: 121 feet - 37 meters
Operating hours: N/A
Operating agency: Civil government, landing fees and diplomatic clearance may be required
Timezone: UTC+8
Fuel: Jet A1, without icing nhibitor.

100/130 MIL Spec, low lead, aviation gasoline (BLUE)

Runway information:
03/21 - 6499 x 148 feet< - >1981 x 45 meters
08/26 - 2953 x 59 feet< - >900 x 18 meters
14/32 - 2769 x 59 feet< - >844 x 18 meters

Recent METARs:
YGEL 142000Z AUTO 15004KT 0250 // BKN005 BKN110 15/14 Q1012
YGEL 142030Z AUTO 15005KT 0350 // SCT005 15/14 Q1013 RF00.0/000.0
YGEL 142100Z AUTO 15005KT 8000 // NCD 15/14 Q1013 RF00.0/000.0

Airport on the map: